Time;durP1;ratioP1;P1;durP2;ratioP2;P2;SDS_P1;SDS_P2;PMS_P1;PMS_P2;Temp;Humidity;BMP_temperature;BMP_pressure;BME280_temperature;BME280_humidity;BME280_pressure;Samples;Min_cycle;Max_cycle;Signal;HPM_P1;HPM_P2
2022/01/14 00:00:20;;;;;;;22.63;12.50;;;7.00;83.00;;;;;;5096196;28;20345;-65
2022/01/14 00:02:45;;;;;;;22.23;12.63;;;7.00;83.00;;;;;;5096665;28;20039;-65
2022/01/14 00:05:11;;;;;;;26.40;12.67;;;7.00;83.00;;;;;;5095245;28;20107;-65
2022/01/14 00:07:37;;;;;;;23.13;11.93;;;7.00;83.00;;;;;;5096234;28;20047;-65
2022/01/14 00:10:03;;;;;;;26.70;13.53;;;7.00;83.00;;;;;;5095524;28;20440;-65
2022/01/14 00:12:36;;;;;;;23.93;13.60;;;6.90;83.00;;;;;;5095324;28;20126;-66
2022/01/14 00:15:23;;;;;;;24.87;13.53;;;7.00;83.00;;;;;;5094573;28;20020;-65
2022/01/14 00:17:47;;;;;;;25.63;14.20;;;6.90;83.00;;;;;;5095647;28;20456;-65
2022/01/14 00:20:12;;;;;;;23.53;12.67;;;6.90;82.90;;;;;;5095658;28;20059;-65
2022/01/14 00:22:38;;;;;;;21.93;11.17;;;6.90;83.00;;;;;;5095066;28;20066;-65
2022/01/14 00:33:08;;;;;;;27.17;13.90;;;6.90;83.00;;;;;;5086989;28;20139;-65
2022/01/14 00:35:41;;;;;;;24.25;12.77;;;6.80;82.90;;;;;;5093063;28;20043;-65
2022/01/14 00:38:11;;;;;;;24.00;12.87;;;6.90;83.00;;;;;;5094465;28;20024;-65
2022/01/14 00:40:37;;;;;;;24.87;13.50;;;6.90;83.00;;;;;;5095636;28;20445;-65
2022/01/14 00:43:04;;;;;;;25.83;13.50;;;6.80;82.90;;;;;;5095500;28;20035;-66
2022/01/14 00:45:30;;;;;;;24.80;13.27;;;6.90;83.00;;;;;;5095680;28;20357;-65
2022/01/14 00:47:56;;;;;;;25.47;12.10;;;6.80;83.00;;;;;;5095782;28;20031;-65
2022/01/14 00:50:21;;;;;;;25.00;13.40;;;6.90;83.00;;;;;;5095829;28;20348;-65
2022/01/14 00:52:47;;;;;;;26.50;13.87;;;6.90;83.00;;;;;;5094858;28;21983;-66
2022/01/14 00:55:17;;;;;;;27.30;14.70;;;6.90;83.00;;;;;;5094165;28;20031;-65
2022/01/14 01:00:23;;;;;;;23.30;12.80;;;6.90;83.00;;;;;;5095179;28;20028;-66
2022/01/14 01:02:49;;;;;;;26.30;14.85;;;6.90;83.00;;;;;;5093999;28;20039;-65
2022/01/14 01:05:15;;;;;;;24.73;13.10;;;6.90;83.00;;;;;;5095136;28;20024;-65
2022/01/14 01:07:43;;;;;;;28.00;14.53;;;6.90;83.00;;;;;;5095192;28;20027;-65
2022/01/14 01:10:10;;;;;;;32.50;15.87;;;6.90;83.00;;;;;;5094940;28;20119;-66
2022/01/14 01:12:51;;;;;;;30.17;15.40;;;6.90;83.00;;;;;;5094991;28;20035;-65
2022/01/14 01:15:17;;;;;;;28.55;13.95;;;6.90;83.00;;;;;;5084377;28;20162;-65
2022/01/14 01:17:44;;;;;;;28.37;14.23;;;6.90;83.00;;;;;;5095200;28;20328;-65
2022/01/14 01:20:18;;;;;;;28.60;16.03;;;6.80;83.00;;;;;;5093736;28;20024;-65
2022/01/14 01:22:47;;;;;;;26.50;14.93;;;6.90;83.00;;;;;;5094974;28;20036;-65
2022/01/14 01:25:24;;;;;;;27.70;15.57;;;6.90;83.00;;;;;;5075042;28;20024;-65
2022/01/14 01:27:53;;;;;;;29.07;15.03;;;6.90;83.00;;;;;;5093288;28;20341;-65
2022/01/14 01:32:58;;;;;;;28.17;14.77;;;6.90;83.00;;;;;;5091354;28;20039;-65
2022/01/14 01:35:23;;;;;;;31.47;16.57;;;6.90;83.00;;;;;;5093705;28;20020;-65
2022/01/14 01:37:49;;;;;;;27.93;15.03;;;6.90;83.00;;;;;;5094045;28;20047;-65
2022/01/14 01:40:15;;;;;;;27.37;14.37;;;6.90;83.00;;;;;;5094649;28;20449;-65
2022/01/14 01:42:44;;;;;;;30.23;16.00;;;6.90;82.90;;;;;;5092813;28;20103;-65
2022/01/14 01:45:20;;;;;;;28.23;15.17;;;6.90;83.00;;;;;;5093857;28;20032;-65
2022/01/14 01:47:50;;;;;;;30.43;14.70;;;6.90;83.00;;;;;;5089471;28;20028;-66
2022/01/14 01:50:19;;;;;;;31.73;16.93;;;6.90;82.90;;;;;;5093970;28;20039;-65
2022/01/14 01:52:45;;;;;;;29.30;15.53;;;6.90;82.90;;;;;;5094786;28;20043;-65
2022/01/14 01:55:12;;;;;;;30.03;16.00;;;6.90;82.90;;;;;;5090116;28;20094;-65
2022/01/14 01:57:38;;;;;;;27.90;15.40;;;6.90;82.90;;;;;;5093265;28;20063;-66
2022/01/14 02:00:07;;;;;;;29.27;15.87;;;6.90;82.90;;;;;;5093053;28;20448;-66
2022/01/14 02:02:41;;;;;;;28.00;15.50;;;6.90;82.80;;;;;;5093235;28;20032;-65
2022/01/14 02:05:08;;;;;;;33.17;16.70;;;6.80;82.70;;;;;;5092914;28;20047;-65
2022/01/14 02:07:34;;;;;;;32.10;15.67;;;6.90;82.70;;;;;;5092879;28;20050;-65
2022/01/14 02:10:00;;;;;;;31.17;15.83;;;6.90;82.70;;;;;;5092876;28;20028;-65
2022/01/14 02:12:35;;;;;;;28.60;16.73;;;6.90;82.80;;;;;;5091770;28;20035;-66
2022/01/14 02:15:26;;;;;;;30.40;16.60;;;6.80;82.80;;;;;;5089341;28;20036;-67
2022/01/14 02:23:12;;;;;;;31.37;15.77;;;6.80;82.90;;;;;;5092609;28;20357;-68
2022/01/14 02:25:38;;;;;;;31.73;16.23;;;6.80;82.80;;;;;;5093193;28;20043;-67
2022/01/14 02:28:08;;;;;;;26.50;15.07;;;6.80;82.80;;;;;;5093484;28;20044;-66
2022/01/14 02:30:38;;;;;;;30.63;16.67;;;6.80;82.80;;;;;;5083542;28;20074;-66
2022/01/14 02:33:05;;;;;;;24.37;13.13;;;6.80;82.80;;;;;;5087845;28;20473;-66
2022/01/14 02:35:31;;;;;;;26.47;15.03;;;6.80;82.80;;;;;;5085013;28;20024;-67
2022/01/14 02:37:57;;;;;;;26.13;14.07;;;6.80;82.80;;;;;;5093289;28;20020;-66
2022/01/14 02:40:23;;;;;;;30.07;15.80;;;6.80;82.80;;;;;;5087034;28;20024;-67
2022/01/14 02:42:49;;;;;;;27.13;14.43;;;6.80;82.90;;;;;;5073090;28;20028;-66
2022/01/14 02:45:16;;;;;;;24.60;14.23;;;6.70;82.90;;;;;;5092461;28;20111;-67
2022/01/14 02:47:43;;;;;;;27.30;14.17;;;6.80;82.90;;;;;;5081057;28;20094;-67
2022/01/14 02:50:14;;;;;;;27.13;14.90;;;6.70;82.80;;;;;;5090929;28;20054;-66
2022/01/14 02:52:55;;;;;;;24.83;13.80;;;6.70;82.90;;;;;;5081135;28;20124;-66
2022/01/14 02:55:30;;;;;;;25.38;13.73;;;6.70;82.90;;;;;;5081773;28;20086;-67
2022/01/14 02:57:58;;;;;;;24.17;13.67;;;6.70;82.90;;;;;;5092025;28;20449;-67
2022/01/14 03:00:29;;;;;;;30.13;15.77;;;6.70;82.90;;;;;;5091259;28;20049;-67
2022/01/14 03:02:59;;;;;;;29.60;14.77;;;6.70;82.80;;;;;;5091639;28;20042;-66
2022/01/14 03:05:27;;;;;;;28.63;15.57;;;6.70;82.80;;;;;;5095575;28;20030;-67
2022/01/14 03:07:53;;;;;;;30.70;15.27;;;6.80;82.80;;;;;;5095755;28;20416;-66
2022/01/14 03:10:19;;;;;;;24.23;13.00;;;6.80;82.80;;;;;;5086177;28;20078;-67
2022/01/14 03:12:45;;;;;;;28.67;15.17;;;6.80;82.80;;;;;;5091754;28;20085;-67
2022/01/14 03:15:13;;;;;;;29.30;15.43;;;6.70;82.70;;;;;;5096498;28;20075;-67
2022/01/14 03:17:39;;;;;;;28.27;15.63;;;6.80;82.80;;;;;;5096821;28;20020;-66
2022/01/14 03:20:07;;;;;;;29.00;16.10;;;6.70;82.70;;;;;;5095451;28;20028;-67
2022/01/14 03:22:35;;;;;;;26.77;15.57;;;6.70;82.80;;;;;;5096871;28;20048;-67
2022/01/14 03:27:46;;;;;;;25.77;13.90;;;6.70;82.70;;;;;;5096459;28;20111;-67
2022/01/14 03:30:12;;;;;;;30.17;15.63;;;6.70;82.70;;;;;;5096462;28;20120;-68
2022/01/14 03:32:42;;;;;;;30.10;15.70;;;6.70;82.70;;;;;;5078600;28;20023;-67
2022/01/14 03:35:09;;;;;;;24.67;12.97;;;6.70;82.80;;;;;;5096592;28;20052;-66
2022/01/14 03:37:35;;;;;;;28.37;14.53;;;6.70;82.80;;;;;;5096457;28;20059;-66
2022/01/14 03:40:02;;;;;;;26.93;13.23;;;6.70;82.80;;;;;;5096418;28;20353;-67
2022/01/14 03:42:28;;;;;;;26.30;15.80;;;6.70;82.90;;;;;;5096229;28;20051;-66
2022/01/14 03:44:53;;;;;;;28.27;13.93;;;6.70;82.80;;;;;;5096530;28;20036;-66
2022/01/14 03:47:19;;;;;;;26.47;14.20;;;6.70;82.80;;;;;;5096530;28;20043;-67
2022/01/14 03:49:45;;;;;;;28.90;15.77;;;6.70;82.80;;;;;;5096487;28;20135;-66
2022/01/14 03:52:10;;;;;;;28.63;14.37;;;6.70;82.80;;;;;;5095882;28;20073;-66
2022/01/14 03:54:36;;;;;;;31.03;15.20;;;6.70;82.80;;;;;;5096351;28;20028;-67
2022/01/14 03:57:01;;;;;;;25.30;14.87;;;6.70;82.80;;;;;;5096161;28;20032;-67
2022/01/14 03:59:27;;;;;;;29.10;14.00;;;6.70;82.70;;;;;;5095345;28;20030;-66
2022/01/14 04:01:52;;;;;;;24.47;13.63;;;6.70;82.70;;;;;;5096020;28;20447;-67
2022/01/14 04:04:18;;;;;;;28.43;15.37;;;6.70;82.70;;;;;;5094662;28;20064;-66
2022/01/14 04:06:44;;;;;;;27.20;14.73;;;6.70;82.70;;;;;;5095782;28;20081;-67
2022/01/14 04:09:09;;;;;;;29.10;15.87;;;6.70;82.80;;;;;;5094568;28;20097;-67
2022/01/14 04:11:35;;;;;;;26.40;14.83;;;6.70;82.80;;;;;;5095552;28;20368;-66
2022/01/14 04:16:46;;;;;;;29.53;16.43;;;6.70;82.80;;;;;;5093049;28;20043;-67
2022/01/14 04:19:11;;;;;;;28.93;16.23;;;6.70;82.80;;;;;;5094670;28;20028;-67
2022/01/14 04:21:37;;;;;;;30.63;17.03;;;6.70;82.80;;;;;;5095494;28;20390;-67
2022/01/14 04:24:03;;;;;;;32.17;16.07;;;6.70;82.80;;;;;;5095490;28;20028;-67
2022/01/14 04:26:28;;;;;;;27.67;14.97;;;6.70;82.80;;;;;;5083860;28;20028;-66
2022/01/14 04:28:54;;;;;;;28.53;16.50;;;6.70;82.80;;;;;;5094750;28;20051;-66
2022/01/14 04:31:20;;;;;;;32.80;17.30;;;6.70;82.80;;;;;;5095559;28;20085;-66
2022/01/14 04:33:45;;;;;;;34.17;17.17;;;6.70;82.70;;;;;;5094361;28;20044;-66
2022/01/14 04:36:11;;;;;;;32.23;16.93;;;6.70;82.80;;;;;;5095742;28;20028;-67
2022/01/14 04:38:36;;;;;;;31.80;16.40;;;6.70;82.80;;;;;;5094126;28;20065;-67
2022/01/14 04:41:03;;;;;;;32.50;16.70;;;6.60;82.80;;;;;;5091982;28;20066;-66
2022/01/14 04:43:29;;;;;;;30.77;16.33;;;6.70;83.20;;;;;;5092002;28;20352;-67
2022/01/14 04:48:28;;;;;;;29.25;14.38;;;6.70;82.90;;;;;;5094518;28;20508;-66
2022/01/14 04:50:54;;;;;;;28.93;15.43;;;6.70;82.90;;;;;;5094911;28;20043;-66
2022/01/14 04:53:21;;;;;;;30.10;17.30;;;6.60;82.80;;;;;;5094088;28;20401;-66
2022/01/14 04:55:47;;;;;;;31.40;16.43;;;6.70;82.90;;;;;;5093069;28;20418;-66
2022/01/14 04:58:13;;;;;;;32.73;17.03;;;6.60;82.80;;;;;;5075105;28;20444;-67
2022/01/14 05:00:39;;;;;;;30.63;17.17;;;6.60;83.50;;;;;;5075321;28;20020;-66
2022/01/14 05:03:06;;;;;;;32.30;17.10;;;6.60;82.90;;;;;;5075386;28;20035;-66
2022/01/14 05:05:35;;;;;;;30.03;17.43;;;6.70;83.00;;;;;;5093386;28;20036;-67
2022/01/14 05:08:01;;;;;;;29.67;15.60;;;6.60;82.90;;;;;;5088485;28;20028;-66
2022/01/14 05:12:56;;;;;;;28.07;15.80;;;6.60;82.90;;;;;;5093045;28;20039;-66
2022/01/14 05:15:22;;;;;;;30.07;15.37;;;6.60;83.60;;;;;;5091917;28;20463;-67
2022/01/14 05:17:49;;;;;;;32.47;17.33;;;6.60;83.00;;;;;;5071259;28;20020;-66
2022/01/14 05:20:16;;;;;;;31.50;15.13;;;6.60;82.90;;;;;;5094378;28;20491;-66
2022/01/14 05:22:43;;;;;;;30.40;16.10;;;6.60;82.90;;;;;;5091229;28;20028;-66
2022/01/14 05:25:10;;;;;;;27.97;15.73;;;6.70;83.00;;;;;;5107281;28;20111;-67
2022/01/14 05:27:36;;;;;;;32.00;16.57;;;6.60;83.00;;;;;;5094343;28;20453;-66
2022/01/14 05:30:07;;;;;;;28.23;15.70;;;6.70;83.10;;;;;;5094429;28;20027;-67
2022/01/14 05:32:33;;;;;;;26.13;13.67;;;6.70;83.10;;;;;;5094074;28;20028;-66
2022/01/14 05:34:58;;;;;;;29.27;15.33;;;6.70;83.10;;;;;;5094105;28;20023;-66
2022/01/14 05:37:24;;;;;;;31.13;16.90;;;6.70;83.00;;;;;;5094345;28;20408;-66
2022/01/14 05:39:50;;;;;;;29.83;15.70;;;6.70;83.00;;;;;;5093176;28;20028;-66
2022/01/14 05:42:17;;;;;;;30.23;14.57;;;6.70;83.00;;;;;;5094513;28;20036;-67
2022/01/14 05:44:43;;;;;;;30.33;16.13;;;6.70;83.10;;;;;;5093561;28;20036;-66
2022/01/14 05:47:09;;;;;;;29.73;15.87;;;6.70;83.10;;;;;;5093534;28;20112;-66
2022/01/14 05:49:34;;;;;;;28.47;15.90;;;6.70;83.10;;;;;;5093101;28;20031;-66
2022/01/14 05:52:00;;;;;;;28.73;14.83;;;6.70;83.10;;;;;;5094374;28;20039;-66
2022/01/14 05:54:26;;;;;;;43.33;15.37;;;6.70;83.10;;;;;;5093591;28;20036;-67
2022/01/14 05:56:51;;;;;;;28.73;14.80;;;6.70;83.20;;;;;;5094044;28;20360;-67
2022/01/14 05:59:17;;;;;;;33.27;14.50;;;6.70;83.20;;;;;;5092007;28;20043;-66
2022/01/14 06:01:44;;;;;;;30.17;14.87;;;6.70;83.20;;;;;;5092814;28;20031;-66
2022/01/14 06:04:09;;;;;;;25.00;13.83;;;6.70;83.20;;;;;;5093459;28;20024;-66
2022/01/14 06:06:35;;;;;;;27.00;14.17;;;6.70;83.30;;;;;;5093854;28;20114;-66
2022/01/14 06:09:02;;;;;;;27.37;15.43;;;6.70;83.30;;;;;;5094087;28;20028;-66
2022/01/14 06:11:27;;;;;;;22.87;12.70;;;6.70;83.20;;;;;;5093511;28;20024;-66
2022/01/14 06:13:54;;;;;;;32.03;15.40;;;6.70;83.30;;;;;;5092831;28;20027;-66
2022/01/14 06:16:20;;;;;;;26.43;14.90;;;6.70;83.30;;;;;;5094701;28;20028;-66
2022/01/14 06:18:46;;;;;;;31.27;14.57;;;6.70;83.30;;;;;;5094105;28;20030;-66
2022/01/14 06:21:12;;;;;;;26.03;14.67;;;6.70;83.40;;;;;;5094285;28;20020;-66
2022/01/14 06:23:38;;;;;;;28.83;15.77;;;6.70;83.40;;;;;;5094170;28;20122;-66
2022/01/14 06:26:04;;;;;;;29.03;15.40;;;6.70;83.40;;;;;;5081733;28;20024;-66
2022/01/14 06:28:30;;;;;;;26.87;13.93;;;6.70;83.40;;;;;;5084241;28;20044;-66
2022/01/14 06:30:55;;;;;;;26.27;14.00;;;6.70;83.40;;;;;;5093021;28;20097;-66
2022/01/14 06:33:22;;;;;;;25.77;14.53;;;6.70;83.40;;;;;;5096128;28;20032;-66
2022/01/14 06:35:49;;;;;;;28.67;14.57;;;6.70;83.40;;;;;;5096972;28;20046;-66
2022/01/14 06:38:16;;;;;;;26.60;14.20;;;6.70;83.40;;;;;;5097912;28;20028;-66
2022/01/14 06:40:42;;;;;;;24.77;14.67;;;6.70;83.40;;;;;;5097835;28;20073;-66
2022/01/14 06:43:07;;;;;;;28.17;14.50;;;6.70;83.30;;;;;;5098029;28;20342;-66
2022/01/14 06:45:33;;;;;;;27.77;14.03;;;6.70;83.40;;;;;;5079794;28;20040;-66
2022/01/14 06:47:59;;;;;;;30.07;15.47;;;6.70;83.40;;;;;;5098026;28;20089;-66
2022/01/14 06:50:25;;;;;;;24.57;14.23;;;6.70;83.40;;;;;;5097011;28;20096;-66
2022/01/14 06:52:51;;;;;;;27.10;14.30;;;6.70;83.40;;;;;;5096962;28;20049;-66
2022/01/14 06:55:17;;;;;;;24.90;13.07;;;6.70;83.40;;;;;;5079216;28;20423;-67
2022/01/14 06:57:43;;;;;;;27.63;15.83;;;6.80;83.40;;;;;;5096294;28;20044;-67
2022/01/14 07:00:12;;;;;;;22.83;12.57;;;6.80;83.30;;;;;;5096328;28;20028;-67
2022/01/14 07:02:38;;;;;;;28.70;15.13;;;6.80;83.30;;;;;;5096890;28;20089;-67
2022/01/14 07:05:05;;;;;;;30.47;15.17;;;6.90;83.20;;;;;;5096036;28;20379;-67
2022/01/14 07:07:31;;;;;;;25.67;14.03;;;6.80;83.20;;;;;;5097444;28;20113;-67
2022/01/14 07:09:57;;;;;;;28.67;15.37;;;6.80;83.20;;;;;;5097142;28;20032;-67
2022/01/14 07:12:28;;;;;;;27.83;15.70;;;6.80;83.30;;;;;;5097774;28;20027;-67
2022/01/14 07:14:54;;;;;;;28.17;14.80;;;6.80;83.30;;;;;;5081995;28;21769;-67
2022/01/14 07:17:21;;;;;;;26.33;14.63;;;6.80;83.30;;;;;;5095985;28;20036;-67
2022/01/14 07:19:49;;;;;;;25.80;14.30;;;6.80;83.30;;;;;;5096870;28;20032;-66
2022/01/14 07:22:14;;;;;;;30.00;14.10;;;6.80;83.30;;;;;;5097194;28;20038;-67
2022/01/14 07:24:40;;;;;;;23.13;14.00;;;6.80;83.20;;;;;;5095725;28;20111;-66
2022/01/14 07:27:06;;;;;;;25.50;15.33;;;6.80;83.20;;;;;;5088019;28;20032;-67
2022/01/14 07:29:31;;;;;;;29.30;14.07;;;6.80;83.20;;;;;;5082289;28;20062;-67
2022/01/14 07:31:58;;;;;;;27.17;14.67;;;6.80;83.20;;;;;;5095919;28;20036;-67
2022/01/14 07:34:25;;;;;;;28.60;15.20;;;6.80;83.20;;;;;;5095748;28;20425;-67
2022/01/14 07:36:51;;;;;;;27.50;14.57;;;6.80;83.20;;;;;;5095513;28;20104;-67
2022/01/14 07:39:18;;;;;;;27.30;14.17;;;6.80;83.20;;;;;;5094870;28;20081;-67
2022/01/14 07:41:43;;;;;;;28.37;16.37;;;6.80;83.20;;;;;;5093399;28;20035;-66
2022/01/14 07:44:12;;;;;;;30.23;16.03;;;6.80;83.10;;;;;;5093773;28;20455;-66
2022/01/14 07:46:37;;;;;;;26.43;14.10;;;6.80;83.10;;;;;;5095206;28;20441;-67
2022/01/14 07:49:03;;;;;;;25.80;13.37;;;6.80;83.10;;;;;;5093025;28;20153;-67
2022/01/14 07:51:29;;;;;;;23.90;13.00;;;6.80;83.10;;;;;;5075411;28;20046;-67
2022/01/14 07:53:56;;;;;;;22.07;12.80;;;6.80;83.10;;;;;;5094367;28;20032;-66
2022/01/14 07:56:22;;;;;;;28.07;14.67;;;6.80;83.00;;;;;;5094466;28;20619;-67
2022/01/14 07:58:48;;;;;;;26.33;14.23;;;6.80;83.00;;;;;;5094181;28;20030;-66
2022/01/14 08:01:14;;;;;;;27.57;13.47;;;6.80;83.10;;;;;;5094674;28;20372;-66
2022/01/14 08:03:39;;;;;;;25.30;14.80;;;6.80;83.10;;;;;;5095845;28;20024;-66
2022/01/14 08:06:05;;;;;;;25.90;13.17;;;6.80;83.10;;;;;;5096193;28;20035;-66
2022/01/14 08:08:31;;;;;;;26.03;13.43;;;6.80;83.10;;;;;;5085826;28;20024;-66
2022/01/14 08:10:58;;;;;;;24.90;13.33;;;6.80;83.10;;;;;;5081868;28;20085;-66
2022/01/14 08:13:24;;;;;;;25.83;14.50;;;6.80;83.10;;;;;;5094953;28;20077;-66
2022/01/14 08:15:49;;;;;;;24.50;14.60;;;6.80;83.10;;;;;;5110419;28;20056;-66
2022/01/14 08:18:15;;;;;;;30.53;13.60;;;6.80;83.10;;;;;;5095593;28;20031;-66
2022/01/14 08:20:41;;;;;;;25.80;14.93;;;6.80;83.10;;;;;;5095707;28;20016;-66
2022/01/14 08:23:06;;;;;;;25.90;14.43;;;6.80;83.10;;;;;;5095885;28;20035;-66
2022/01/14 08:25:32;;;;;;;26.30;13.77;;;6.90;83.10;;;;;;5095143;28;20368;-66
2022/01/14 08:27:57;;;;;;;27.80;14.70;;;6.80;83.10;;;;;;5095378;28;20036;-66
2022/01/14 08:30:23;;;;;;;25.13;14.87;;;6.90;83.10;;;;;;5095100;28;20028;-66
2022/01/14 08:32:50;;;;;;;25.93;14.20;;;6.80;83.10;;;;;;5095317;28;20341;-66
2022/01/14 08:35:15;;;;;;;25.10;13.57;;;6.80;83.10;;;;;;5094157;28;20304;-66
2022/01/14 08:37:41;;;;;;;23.57;13.50;;;6.80;83.10;;;;;;5095226;28;20039;-66
2022/01/14 08:40:09;;;;;;;23.00;12.17;;;6.80;83.10;;;;;;5095541;28;20043;-66
2022/01/14 08:42:35;;;;;;;25.23;14.93;;;6.80;83.10;;;;;;5094500;28;20079;-66
2022/01/14 08:45:01;;;;;;;25.30;13.17;;;6.90;83.20;;;;;;5095093;28;20338;-66
2022/01/14 08:47:26;;;;;;;25.37;13.97;;;6.90;83.10;;;;;;5094678;28;20452;-66
2022/01/14 08:49:52;;;;;;;22.70;13.07;;;6.90;83.10;;;;;;5095449;28;20085;-66
2022/01/14 08:52:18;;;;;;;23.03;12.90;;;6.80;83.10;;;;;;5094626;28;20036;-66
2022/01/14 08:54:43;;;;;;;24.60;13.53;;;6.80;83.10;;;;;;5095108;28;20093;-66
2022/01/14 08:57:09;;;;;;;27.00;14.37;;;6.90;83.20;;;;;;5093699;28;20103;-66
2022/01/14 08:59:37;;;;;;;25.40;13.90;;;6.90;83.10;;;;;;5077279;28;20046;-67
2022/01/14 09:02:03;;;;;;;26.53;12.93;;;6.90;83.10;;;;;;5094001;28;20036;-67
2022/01/14 09:04:29;;;;;;;31.47;14.47;;;6.90;83.10;;;;;;5093969;28;20091;-67
2022/01/14 09:06:55;;;;;;;22.57;12.57;;;6.90;83.00;;;;;;5076429;28;20096;-67
2022/01/14 09:09:20;;;;;;;21.17;12.27;;;7.00;83.10;;;;;;5094942;28;20112;-67
2022/01/14 09:11:46;;;;;;;26.07;14.07;;;7.00;83.00;;;;;;5076242;28;20110;-66
2022/01/14 09:14:12;;;;;;;22.67;13.43;;;7.00;83.00;;;;;;5094169;28;20407;-67
2022/01/14 09:16:37;;;;;;;27.83;14.33;;;7.00;83.00;;;;;;5093268;28;20024;-66
2022/01/14 09:19:03;;;;;;;25.60;13.90;;;7.00;83.00;;;;;;5094784;28;20023;-67
2022/01/14 09:21:29;;;;;;;26.63;14.00;;;7.00;83.00;;;;;;5093992;28;20102;-66
2022/01/14 09:24:03;;;;;;;26.17;14.20;;;7.00;83.00;;;;;;5094104;28;20032;-67
2022/01/14 09:26:30;;;;;;;27.20;13.43;;;7.00;83.00;;;;;;5099350;28;20130;-67
2022/01/14 09:28:56;;;;;;;26.47;12.90;;;7.00;83.00;;;;;;5090654;28;20364;-68
2022/01/14 09:31:22;;;;;;;25.23;13.23;;;7.00;83.00;;;;;;5092756;28;20028;-68
2022/01/14 09:33:48;;;;;;;24.53;13.50;;;7.00;83.00;;;;;;5092623;28;20048;-67
2022/01/14 09:36:13;;;;;;;28.50;13.97;;;7.00;83.00;;;;;;5093359;28;20043;-67
2022/01/14 09:38:39;;;;;;;25.20;14.27;;;7.00;83.00;;;;;;5093999;28;20437;-67
2022/01/14 09:41:07;;;;;;;23.33;14.20;;;7.00;83.00;;;;;;5093907;28;20031;-67
2022/01/14 09:43:38;;;;;;;26.77;13.83;;;7.00;83.00;;;;;;5093642;28;20032;-67
2022/01/14 09:46:06;;;;;;;27.15;14.50;;;7.00;83.00;;;;;;5081770;28;20115;-66
2022/01/14 09:48:33;;;;;;;29.83;15.43;;;7.00;83.00;;;;;;5094376;28;20575;-66
2022/01/14 09:50:59;;;;;;;32.77;15.63;;;7.00;83.00;;;;;;5092962;28;20042;-67
2022/01/14 09:53:26;;;;;;;27.07;14.83;;;7.00;83.00;;;;;;5093559;28;20028;-67
2022/01/14 09:55:52;;;;;;;28.73;15.20;;;7.10;83.00;;;;;;5092859;28;20039;-67
2022/01/14 09:58:18;;;;;;;24.53;14.13;;;7.10;83.00;;;;;;5093920;28;20016;-67
2022/01/14 10:00:44;;;;;;;23.93;13.20;;;7.10;82.90;;;;;;5091909;28;20027;-67
2022/01/14 10:03:25;;;;;;;29.63;15.87;;;7.20;82.90;;;;;;5093347;28;20028;-65
2022/01/14 10:05:56;;;;;;;26.13;13.95;;;7.20;83.60;;;;;;5075498;28;20114;-65
2022/01/14 10:08:26;;;;;;;24.10;13.90;;;7.20;82.90;;;;;;5092933;28;20053;-65
2022/01/14 10:10:59;;;;;;;29.70;14.43;;;7.20;82.90;;;;;;5097451;28;20277;-65
2022/01/14 10:13:33;;;;;;;22.30;12.50;;;7.20;82.90;;;;;;5097642;28;20452;-67
2022/01/14 10:16:07;;;;;;;26.63;14.03;;;7.20;82.80;;;;;;5090573;28;20020;-67
2022/01/14 10:18:34;;;;;;;22.97;12.77;;;7.20;82.80;;;;;;5097968;28;20028;-67
2022/01/14 10:21:02;;;;;;;25.10;13.97;;;7.20;82.80;;;;;;5097473;28;20075;-67
2022/01/14 10:23:44;;;;;;;24.17;13.93;;;7.20;82.70;;;;;;5096592;28;20024;-66
2022/01/14 10:26:12;;;;;;;24.73;13.50;;;7.30;82.80;;;;;;5097590;28;20020;-66
2022/01/14 10:28:37;;;;;;;26.90;14.03;;;7.20;82.70;;;;;;5097323;28;20364;-66
2022/01/14 10:31:05;;;;;;;26.50;13.23;;;7.20;82.70;;;;;;5097519;28;20036;-66
2022/01/14 10:33:31;;;;;;;27.67;14.60;;;7.20;82.70;;;;;;5097659;28;20364;-66
2022/01/14 10:35:57;;;;;;;26.17;13.83;;;7.20;82.80;;;;;;5097377;28;20031;-68
2022/01/14 10:38:26;;;;;;;25.60;14.40;;;7.20;82.80;;;;;;5096269;28;20430;-65
2022/01/14 10:40:57;;;;;;;27.77;14.10;;;7.20;82.80;;;;;;5097090;28;20181;-67
2022/01/14 10:43:31;;;;;;;26.03;13.77;;;7.20;82.80;;;;;;5097228;28;20028;-67
2022/01/14 10:45:57;;;;;;;26.57;15.33;;;7.20;82.80;;;;;;5097671;28;20064;-66
2022/01/14 10:48:29;;;;;;;28.00;15.43;;;7.30;82.80;;;;;;5097448;28;20036;-66
2022/01/14 10:50:58;;;;;;;26.70;14.47;;;7.20;82.70;;;;;;5085155;28;20036;-66
2022/01/14 10:53:33;;;;;;;27.93;15.33;;;7.30;82.80;;;;;;5097238;28;20166;-66
2022/01/14 10:56:03;;;;;;;25.13;14.97;;;7.30;82.80;;;;;;5097352;28;20107;-66
2022/01/14 10:58:35;;;;;;;28.83;15.27;;;7.30;82.70;;;;;;5097281;28;20024;-66
2022/01/14 11:01:05;;;;;;;28.17;16.50;;;7.30;82.70;;;;;;5097021;28;20153;-67
2022/01/14 11:04:01;;;;;;;25.43;13.67;;;7.30;82.70;;;;;;5097116;28;20028;-67
2022/01/14 11:06:41;;;;;;;23.27;14.93;;;7.30;82.60;;;;;;5068985;28;20048;-66
2022/01/14 11:09:11;;;;;;;23.53;14.07;;;7.30;82.70;;;;;;5097839;28;20360;-67
2022/01/14 11:11:38;;;;;;;27.53;14.00;;;7.30;82.60;;;;;;5097152;28;20365;-66
2022/01/14 11:14:05;;;;;;;25.80;13.97;;;7.30;82.70;;;;;;5100106;28;20038;-66
2022/01/14 11:16:31;;;;;;;23.27;13.73;;;7.30;82.70;;;;;;5097007;28;20143;-66
2022/01/14 11:19:00;;;;;;;27.13;16.43;;;7.30;82.60;;;;;;5095824;28;20024;-66
2022/01/14 11:24:18;;;;;;;27.53;16.37;;;7.30;82.60;;;;;;5087937;28;20057;-66
2022/01/14 11:26:46;;;;;;;24.13;12.40;;;7.40;82.70;;;;;;5096628;28;20042;-66
2022/01/14 11:29:15;;;;;;;29.87;14.67;;;7.40;82.70;;;;;;5096080;28;20056;-66
2022/01/14 11:31:42;;;;;;;27.83;15.70;;;7.40;82.60;;;;;;5096090;28;20032;-67
2022/01/14 11:34:27;;;;;;;30.40;16.93;;;7.40;82.60;;;;;;5096381;28;20059;-66
2022/01/14 11:36:58;;;;;;;28.27;16.50;;;7.40;82.60;;;;;;5096732;28;20061;-66
2022/01/14 11:39:26;;;;;;;29.13;16.50;;;7.40;82.50;;;;;;5096592;28;20399;-66
2022/01/14 11:41:53;;;;;;;25.00;14.90;;;7.40;82.50;;;;;;5095406;28;20024;-66
2022/01/14 11:44:41;;;;;;;29.97;16.73;;;7.50;82.50;;;;;;5095040;28;20028;-66
2022/01/14 11:47:07;;;;;;;30.20;16.87;;;7.50;82.40;;;;;;5096054;28;20027;-66
2022/01/14 11:49:37;;;;;;;28.47;16.57;;;7.50;82.50;;;;;;5078151;28;20031;-66
2022/01/14 11:52:06;;;;;;;28.23;15.03;;;7.50;82.50;;;;;;5096767;28;20028;-66
2022/01/14 11:54:40;;;;;;;28.17;15.10;;;7.40;82.40;;;;;;5096154;28;20236;-66
2022/01/14 11:57:06;;;;;;;27.90;15.77;;;7.50;82.50;;;;;;5095872;28;20046;-66
2022/01/14 11:59:31;;;;;;;28.60;16.23;;;7.50;82.50;;;;;;5093271;28;20024;-66
2022/01/14 12:01:57;;;;;;;27.43;15.30;;;7.50;82.50;;;;;;5093670;28;20084;-66
2022/01/14 12:04:43;;;;;;;32.93;16.87;;;7.50;82.50;;;;;;5094293;28;20360;-66
2022/01/14 12:07:09;;;;;;;27.53;13.97;;;7.50;82.50;;;;;;5095172;28;20024;-66
2022/01/14 12:09:59;;;;;;;28.90;15.87;;;7.50;82.50;;;;;;5095353;28;20390;-66
2022/01/14 12:12:33;;;;;;;26.73;15.53;;;7.50;82.50;;;;;;5092255;28;20360;-66
2022/01/14 12:15:01;;;;;;;24.27;14.87;;;7.50;82.50;;;;;;5075657;28;20079;-66
2022/01/14 12:17:41;;;;;;;26.93;14.93;;;7.50;82.50;;;;;;5093097;28;20028;-66
2022/01/14 12:20:15;;;;;;;27.77;15.93;;;7.50;82.50;;;;;;5091470;28;20458;-66
2022/01/14 12:22:42;;;;;;;28.10;16.67;;;7.50;82.50;;;;;;5094147;28;20024;-66
2022/01/14 12:25:09;;;;;;;26.70;16.67;;;7.60;82.50;;;;;;5093288;28;20024;-66
2022/01/14 12:27:43;;;;;;;27.60;15.63;;;7.60;82.50;;;;;;5094272;28;20493;-66
2022/01/14 12:30:09;;;;;;;31.00;16.70;;;7.60;82.50;;;;;;5093215;28;20507;-66
2022/01/14 12:32:39;;;;;;;26.63;15.60;;;7.60;82.40;;;;;;5093247;28;20169;-66
2022/01/14 12:35:18;;;;;;;30.00;17.48;;;7.60;82.40;;;;;;5094666;28;20044;-66
2022/01/14 12:37:48;;;;;;;32.30;17.57;;;7.60;82.40;;;;;;5093251;28;20024;-66
2022/01/14 12:40:34;;;;;;;28.83;16.70;;;7.60;82.30;;;;;;5094399;28;20035;-66
2022/01/14 12:43:06;;;;;;;31.63;16.83;;;7.70;82.30;;;;;;5074967;28;20032;-66
2022/01/14 12:45:41;;;;;;;28.90;15.80;;;7.60;82.30;;;;;;5093734;28;20115;-66
2022/01/14 12:48:18;;;;;;;27.83;16.83;;;7.70;82.30;;;;;;5093199;28;20024;-66
2022/01/14 12:50:46;;;;;;;31.67;17.33;;;7.60;82.30;;;;;;5093973;28;20025;-66
2022/01/14 12:53:19;;;;;;;29.20;17.27;;;7.70;82.30;;;;;;5092829;28;20039;-66
2022/01/14 12:55:46;;;;;;;26.57;16.20;;;7.70;82.30;;;;;;5093152;28;20120;-66
2022/01/14 12:58:12;;;;;;;26.37;15.70;;;7.70;82.30;;;;;;5076163;28;20482;-66
2022/01/14 13:00:39;;;;;;;29.20;16.33;;;7.70;82.20;;;;;;5075634;28;20032;-66
2022/01/14 13:03:16;;;;;;;28.70;17.03;;;7.70;82.20;;;;;;5093637;28;20024;-66
2022/01/14 13:05:42;;;;;;;26.03;16.10;;;7.70;82.20;;;;;;5092932;28;20024;-66
2022/01/14 13:08:08;;;;;;;27.30;16.67;;;7.70;82.20;;;;;;5093831;28;20035;-66
2022/01/14 13:10:35;;;;;;;28.03;16.70;;;7.70;82.20;;;;;;5093437;28;20024;-66